Terminal Aerodrome Forecast
Issued by NWS

Home | Current Version | Previous Version | Text Only | Print | Product List | Glossary On
Versions: 1 2 3 4 5 6 7 8 9 10 11 12 13
000
FTUS41 KLWX 161100
TAFMTN
TAF
KMTN 161139Z 1612/1712 29005KT P6SM BKN060
     FM161400 30008KT P6SM SCT070
     FM162300 VRB03KT P6SM SCT070
     FM171000 03005KT P6SM FEW070=

USA.gov is the U.S. government's official web portal to all federal, state and local government web resources and services.